Time;durP1;ratioP1;P1;durP2;ratioP2;P2;SDS_P1;SDS_P2;PMS_P1;PMS_P2;Temp;Humidity;BMP_temperature;BMP_pressure;BME280_temperature;BME280_humidity;BME280_pressure;Samples;Min_cycle;Max_cycle;Signal;HPM_P1;HPM_P2
2022/06/13 00:02:33;;;;;;;5.30;3.43;;;;;;;22.31;62.78;99052.06;6968217;28;20235;-80
2022/06/13 00:05:58;;;;;;;3.73;3.43;;;;;;;22.67;60.64;99017.97;6967588;28;20226;-80
2022/06/13 00:09:20;;;;;;;4.53;3.53;;;;;;;22.75;61.62;99023.75;6968831;28;20211;-79
2022/06/13 00:12:50;;;;;;;6.37;3.20;;;;;;;23.41;59.65;99007.84;6968141;28;20227;-80
2022/06/13 00:16:21;;;;;;;5.87;3.70;;;;;;;22.95;61.51;98998.13;6968695;28;20234;-80
2022/06/13 00:19:43;;;;;;;9.17;3.30;;;;;;;23.28;60.12;98965.28;6960119;28;20211;-81
2022/06/13 00:23:05;;;;;;;3.83;3.07;;;;;;;23.49;59.55;98980.53;6951945;28;20207;-81
2022/06/13 00:26:29;;;;;;;4.57;3.07;;;;;;;23.72;59.93;98990.88;6951510;28;20289;-80
2022/06/13 00:29:53;;;;;;;5.00;3.97;;;;;;;23.50;58.74;98971.22;6950703;28;20674;-80
2022/06/13 00:33:15;;;;;;;4.27;3.50;;;;;;;23.53;58.96;98981.63;6951296;28;20238;-81
2022/06/13 00:36:38;;;;;;;5.13;3.30;;;;;;;23.33;60.00;98984.50;6950855;28;20272;-80
2022/06/13 00:39:59;;;;;;;4.90;3.03;;;;;;;23.34;59.24;98985.31;6950900;28;20266;-80
2022/06/13 00:43:21;;;;;;;5.17;3.30;;;;;;;23.11;59.77;98967.53;6950303;28;20222;-81
2022/06/13 00:46:42;;;;;;;4.23;3.60;;;;;;;22.93;60.50;98967.31;6951316;28;20230;-81
2022/06/13 00:50:06;;;;;;;4.17;3.10;;;;;;;23.09;60.26;98964.22;6950259;28;20297;-80
2022/06/13 00:53:30;;;;;;;5.70;3.30;;;;;;;22.54;60.94;98960.84;6950639;28;20300;-80
2022/06/13 00:56:52;;;;;;;7.40;3.37;;;;;;;22.84;60.09;98936.81;6949954;28;20412;-80
2022/06/13 01:00:15;;;;;;;3.40;3.03;;;;;;;22.76;60.23;98944.81;6949387;28;20266;-80
2022/06/13 01:03:37;;;;;;;3.90;3.33;;;;;;;22.44;60.77;98931.47;6950207;28;20276;-81
2022/06/13 01:06:58;;;;;;;4.00;3.00;;;;;;;22.59;60.60;98919.59;6950392;28;20209;-81
2022/06/13 01:14:18;;;;;;;4.47;3.27;;;;;;;22.77;59.98;98914.28;6966955;28;20250;-80
2022/06/13 01:17:49;;;;;;;3.83;3.10;;;;;;;22.77;60.36;98916.25;6951953;28;20244;-80
2022/06/13 01:21:16;;;;;;;3.80;3.40;;;;;;;22.92;60.82;98935.41;6951270;28;20672;-80
2022/06/13 01:24:54;;;;;;;6.00;3.70;;;;;;;22.59;61.55;98925.91;6951244;28;20195;-81
2022/06/13 01:28:35;;;;;;;7.33;3.60;;;;;;;22.92;59.36;98908.75;6950382;28;20201;-81
2022/06/13 01:32:05;;;;;;;3.50;3.13;;;;;;;23.13;58.55;98943.28;6970917;28;20823;-80
2022/06/13 01:35:35;;;;;;;5.87;3.17;;;;;;;23.00;59.01;98943.91;6951565;28;20208;-80
2022/06/13 01:39:10;;;;;;;3.50;3.20;;;;;;;22.70;59.52;98911.03;6962069;28;20227;-80
2022/06/13 01:42:39;;;;;;;3.97;3.10;;;;;;;22.89;59.71;98945.03;6957314;28;20305;-81
2022/06/13 01:46:05;;;;;;;5.40;3.83;;;;;;;22.17;60.03;98866.91;6980166;28;20204;-80
2022/06/13 01:49:33;;;;;;;4.17;3.60;;;;;;;22.27;61.18;98960.28;6975278;28;20341;-81
2022/06/13 01:53:01;;;;;;;3.73;3.00;;;;;;;22.59;60.69;98939.66;6977229;28;20315;-81
2022/06/13 01:56:27;;;;;;;4.17;3.20;;;;;;;21.87;62.04;98922.69;6955243;28;20239;-81
2022/06/13 01:59:53;;;;;;;5.30;3.73;;;;;;;22.46;60.98;98933.91;6947704;28;20214;-80
2022/06/13 02:03:17;;;;;;;4.77;3.93;;;;;;;22.24;60.90;98917.72;6949292;28;20282;-80
2022/06/13 02:06:42;;;;;;;4.93;3.57;;;;;;;22.58;61.33;98931.69;6949011;28;20668;-81
2022/06/13 02:10:08;;;;;;;4.47;3.57;;;;;;;22.62;61.31;98947.34;6948446;28;20222;-81
2022/06/13 02:13:33;;;;;;;4.30;3.90;;;;;;;21.90;62.88;98951.53;6948665;28;20209;-80
2022/06/13 02:16:59;;;;;;;6.20;4.13;;;;;;;22.31;61.91;98937.47;6948884;28;20234;-80
2022/06/13 02:20:23;;;;;;;5.03;3.97;;;;;;;22.33;62.11;98956.44;6948084;28;20237;-81
2022/06/13 02:23:48;;;;;;;5.27;4.17;;;;;;;22.45;62.04;98946.84;6948313;28;20337;-81
2022/06/13 02:27:11;;;;;;;5.43;4.30;;;;;;;22.46;62.68;98964.13;6948067;28;20203;-81
2022/06/13 02:30:35;;;;;;;5.10;4.00;;;;;;;22.60;62.92;98976.22;6947270;28;20234;-81
2022/06/13 02:34:00;;;;;;;4.50;4.10;;;;;;;22.71;62.32;98936.59;6948421;28;20278;-81
2022/06/13 02:37:25;;;;;;;5.50;3.77;;;;;;;22.99;60.55;98924.94;6948561;28;20224;-80
2022/06/13 02:40:52;;;;;;;4.57;4.17;;;;;;;22.31;63.01;98947.66;6948041;28;20229;-80
2022/06/13 02:44:17;;;;;;;4.37;3.90;;;;;;;22.89;60.85;98936.00;6948406;28;20215;-80
2022/06/13 02:47:42;;;;;;;4.10;3.70;;;;;;;22.81;60.07;98920.91;6947909;28;20197;-80
2022/06/13 02:51:07;;;;;;;4.77;3.50;;;;;;;22.86;60.35;98953.88;6948955;28;20254;-80
2022/06/13 02:54:35;;;;;;;4.47;3.57;;;;;;;22.87;59.69;98947.25;6949885;28;20547;-82
2022/06/13 02:58:11;;;;;;;5.63;3.90;;;;;;;22.45;60.50;98938.59;6949310;28;20224;-81
2022/06/13 03:01:35;;;;;;;4.47;4.07;;;;;;;22.28;61.85;98924.31;6951617;28;20241;-81
2022/06/13 03:05:01;;;;;;;4.30;3.83;;;;;;;22.49;60.98;98925.94;6956567;28;20253;-81
2022/06/13 03:08:33;;;;;;;4.73;4.33;;;;;;;22.49;61.48;98945.16;6955346;28;20211;-80
2022/06/13 03:12:01;;;;;;;5.47;4.20;;;;;;;22.14;61.49;98927.91;6950127;28;20229;-81
2022/06/13 03:15:28;;;;;;;5.60;4.30;;;;;;;22.44;61.07;98955.34;6949501;28;20207;-80
2022/06/13 03:18:53;;;;;;;6.37;4.43;;;;;;;22.01;62.06;98943.00;6949056;28;20191;-80
2022/06/13 03:22:17;;;;;;;4.93;4.47;;;;;;;22.12;61.89;98963.88;6952898;28;20238;-81
2022/06/13 03:25:41;;;;;;;5.23;4.07;;;;;;;22.11;62.20;98928.44;6969572;28;20214;-80
2022/06/13 03:29:06;;;;;;;5.67;4.57;;;;;;;22.01;62.18;98948.50;6955220;28;20715;-80
2022/06/13 03:32:32;;;;;;;5.60;4.50;;;;;;;22.16;62.31;98958.66;6968178;28;20225;-80
2022/06/13 03:35:55;;;;;;;5.77;4.83;;;;;;;22.18;62.51;98968.25;6964637;28;20234;-80
2022/06/13 03:39:19;;;;;;;6.10;4.37;;;;;;;21.78;62.78;98945.47;6954514;28;20297;-80
2022/06/13 03:42:43;;;;;;;7.47;4.60;;;;;;;22.13;62.15;98979.25;6953784;28;20275;-79
2022/06/13 03:46:08;;;;;;;4.83;4.03;;;;;;;22.11;61.54;98977.88;6953021;28;20191;-80
2022/06/13 03:49:34;;;;;;;7.47;4.17;;;;;;;22.06;60.97;98975.16;6952796;28;20238;-79
2022/06/13 03:52:59;;;;;;;6.43;4.30;;;;;;;21.98;60.80;98967.44;6953689;28;20252;-78
2022/06/13 03:56:23;;;;;;;4.73;4.10;;;;;;;22.17;60.10;98976.78;6952261;28;20744;-79
2022/06/13 03:59:47;;;;;;;9.73;4.50;;;;;;;22.09;60.79;98989.16;6950879;28;20298;-79
2022/06/13 04:03:09;;;;;;;6.87;3.97;;;;;;;21.96;60.33;98953.97;6957333;28;20675;-79
2022/06/13 04:06:36;;;;;;;7.20;4.03;;;;;;;21.95;59.95;98968.00;6979002;28;20209;-80
2022/06/13 04:10:01;;;;;;;7.67;4.00;;;;;;;22.04;58.86;98988.31;6978485;28;20287;-79
2022/06/13 04:13:43;;;;;;;8.87;3.90;;;;;;;22.17;58.80;98974.03;6977995;28;20240;-79
2022/06/13 04:17:09;;;;;;;5.70;3.80;;;;;;;21.80;58.64;98974.31;6978065;28;20207;-79
2022/06/13 04:20:38;;;;;;;5.50;3.63;;;;;;;21.86;58.97;98962.25;6978411;28;20274;-80
2022/06/13 04:24:10;;;;;;;8.70;3.80;;;;;;;22.00;58.64;98966.06;6978622;28;20209;-79
2022/06/13 04:27:39;;;;;;;5.17;3.80;;;;;;;21.92;56.93;98976.78;6977510;28;20220;-80
2022/06/13 04:31:01;;;;;;;10.17;3.87;;;;;;;21.61;58.52;98937.44;6972996;28;20662;-78
2022/06/13 04:34:26;;;;;;;9.23;4.10;;;;;;;21.57;58.78;98973.94;6950369;28;20203;-79
2022/06/13 04:37:48;;;;;;;5.60;3.87;;;;;;;21.66;58.46;98986.06;6959843;28;20250;-79
2022/06/13 04:41:12;;;;;;;6.00;4.10;;;;;;;21.79;58.48;98986.41;6951079;28;20369;-80
2022/06/13 04:44:34;;;;;;;8.67;4.00;;;;;;;21.81;57.41;99003.41;6958632;28;20255;-79
2022/06/13 04:47:58;;;;;;;8.13;3.60;;;;;;;22.14;55.94;99013.84;6976249;28;20228;-80
2022/06/13 04:51:22;;;;;;;9.17;4.00;;;;;;;22.12;55.37;99005.06;6978082;28;20220;-79
2022/06/13 04:54:46;;;;;;;9.33;3.67;;;;;;;21.79;55.27;99004.78;6980197;28;20303;-80
2022/06/13 04:58:14;;;;;;;10.43;3.80;;;;;;;21.60;54.95;99003.63;6974053;28;20239;-79
2022/06/13 05:01:42;;;;;;;7.93;3.67;;;;;;;21.33;55.03;98999.41;6981484;28;20714;-80
2022/06/13 05:05:05;;;;;;;6.63;4.03;;;;;;;21.54;54.75;99019.22;6973984;28;20195;-79
2022/06/13 05:08:29;;;;;;;8.97;3.63;;;;;;;21.71;55.43;99024.53;6982126;28;20199;-80
2022/06/13 05:11:54;;;;;;;10.40;4.30;;;;;;;21.95;53.33;99029.22;6956123;28;20234;-79
2022/06/13 05:15:20;;;;;;;11.83;4.10;;;;;;;22.03;53.34;99025.13;6956701;28;20193;-79
2022/06/13 05:18:51;;;;;;;7.33;3.50;;;;;;;22.30;52.59;99020.19;6975294;28;20229;-80
2022/06/13 05:22:29;;;;;;;12.27;4.30;;;;;;;22.55;50.92;99028.44;6976497;28;20229;-80
2022/06/13 05:25:53;;;;;;;9.27;3.90;;;;;;;22.82;50.87;99064.66;6977100;28;20291;-79
2022/06/13 05:29:14;;;;;;;9.70;3.60;;;;;;;23.28;51.20;99050.56;6975953;28;20200;-79
2022/06/13 05:32:37;;;;;;;10.13;3.80;;;;;;;23.30;49.91;99058.56;6977633;28;20224;-79
2022/06/13 05:36:01;;;;;;;8.80;3.73;;;;;;;23.25;49.72;99044.81;6994533;28;20208;-78
2022/06/13 05:39:23;;;;;;;7.43;3.97;;;;;;;23.80;47.50;99044.53;6977801;28;20638;-79
2022/06/13 05:42:45;;;;;;;10.87;3.50;;;;;;;23.91;46.83;99068.19;6975388;28;20831;-78
2022/06/13 05:46:07;;;;;;;9.10;3.53;;;;;;;24.05;48.29;99053.50;6976485;28;20214;-79
2022/06/13 05:49:30;;;;;;;7.33;3.60;;;;;;;23.66;47.17;99065.53;6975711;28;20206;-79
2022/06/13 05:52:52;;;;;;;5.50;3.30;;;;;;;23.93;45.93;99064.03;6978302;28;20226;-79
2022/06/13 05:56:14;;;;;;;5.73;3.20;;;;;;;24.13;45.87;99069.41;6980980;28;20199;-79
2022/06/13 05:59:35;;;;;;;6.77;3.43;;;;;;;23.99;45.25;99070.31;6975558;28;20362;-78
2022/06/13 06:02:57;;;;;;;7.17;3.57;;;;;;;24.06;45.81;99073.59;6976241;28;20245;-79
2022/06/13 06:06:22;;;;;;;7.20;3.17;;;;;;;24.19;44.75;99072.97;6975667;28;20237;-81
2022/06/13 06:09:43;;;;;;;8.17;3.37;;;;;;;23.87;44.68;99080.84;6975408;28;20299;-77
2022/06/13 06:13:05;;;;;;;6.80;2.90;;;;;;;23.52;45.61;99076.34;6974423;28;20195;-79
2022/06/13 06:16:28;;;;;;;6.83;3.20;;;;;;;24.26;44.47;99090.81;6976476;28;20324;-79
2022/06/13 06:19:50;;;;;;;6.07;3.00;;;;;;;24.81;42.29;99068.31;6975872;28;20219;-78
2022/06/13 06:23:13;;;;;;;5.20;3.30;;;;;;;24.24;42.64;99083.97;6980308;28;20211;-79
2022/06/13 06:26:36;;;;;;;6.70;3.30;;;;;;;23.52;44.50;99106.63;6981970;28;20210;-78
2022/06/13 06:29:58;;;;;;;6.90;3.30;;;;;;;23.77;43.66;99101.00;6981162;28;20213;-79
2022/06/13 06:33:20;;;;;;;9.67;3.27;;;;;;;24.07;43.89;99109.13;6979647;28;20203;-78
2022/06/13 06:36:42;;;;;;;5.13;2.80;;;;;;;24.74;41.38;99122.19;6976997;28;20711;-80
2022/06/13 06:40:07;;;;;;;6.00;2.73;;;;;;;24.93;41.21;99109.31;6977052;28;20235;-78
2022/06/13 06:43:29;;;;;;;6.57;2.93;;;;;;;24.99;41.21;99099.88;6979187;28;20217;-80
2022/06/13 06:46:50;;;;;;;6.53;3.00;;;;;;;24.78;41.21;99106.69;6981619;28;20236;-78
2022/06/13 06:50:14;;;;;;;5.00;2.60;;;;;;;25.12;41.01;99118.53;6978266;28;20809;-79
2022/06/13 07:01:01;;;;;;;9.27;3.40;;;;;;;25.21;40.84;99125.03;6988254;28;20246;-79
2022/06/13 07:04:22;;;;;;;7.13;2.83;;;;;;;25.17;39.79;99112.94;6979889;28;20238;-79
2022/06/13 07:07:44;;;;;;;6.87;3.00;;;;;;;24.38;42.06;99131.81;6973962;28;20201;-79
2022/06/13 07:14:48;;;;;;;8.40;3.77;;;;;;;25.75;39.00;99120.84;6986880;28;20206;-79
2022/06/13 07:18:10;;;;;;;7.43;2.90;;;;;;;25.04;38.93;99113.63;6996488;28;20230;-80
2022/06/13 07:21:32;;;;;;;6.03;3.07;;;;;;;25.14;39.77;99099.72;6995435;28;20226;-79
2022/06/13 07:24:54;;;;;;;5.80;2.80;;;;;;;25.32;39.48;99132.94;6992859;28;20744;-79
2022/06/13 07:28:16;;;;;;;4.93;2.47;;;;;;;25.64;37.97;99144.19;6981319;28;20204;-79
2022/06/13 07:31:42;;;;;;;8.27;3.07;;;;;;;25.59;38.01;99143.44;6986146;28;20704;-79
2022/06/13 07:35:04;;;;;;;6.13;2.83;;;;;;;25.41;38.26;99133.97;6987595;28;20209;-78
2022/06/13 07:38:27;;;;;;;10.30;2.83;;;;;;;25.75;37.21;99098.75;7002184;28;20236;-78
2022/06/13 07:42:00;;;;;;;5.83;3.20;;;;;;;26.00;37.70;99137.13;6995949;28;20225;-79
2022/06/13 07:45:30;;;;;;;7.97;2.90;;;;;;;26.20;36.12;99145.13;6997335;28;20234;-79
2022/06/13 07:48:54;;;;;;;3.80;2.70;;;;;;;25.45;36.84;99128.66;6993362;28;20198;-79
2022/06/13 07:52:15;;;;;;;5.37;3.00;;;;;;;25.51;36.23;99136.63;6989290;28;20285;-78
2022/06/13 07:55:46;;;;;;;6.90;3.00;;;;;;;25.94;36.59;99141.06;6990042;28;20218;-78
2022/06/13 07:59:08;;;;;;;5.27;2.93;;;;;;;25.87;35.93;99103.84;6962843;28;20243;-79
2022/06/13 08:02:31;;;;;;;5.90;2.90;;;;;;;26.58;34.64;99162.56;6969520;28;20641;-78
2022/06/13 08:05:55;;;;;;;5.37;2.50;;;;;;;26.95;34.46;99162.56;6992382;28;20841;-79
2022/06/13 08:09:16;;;;;;;6.97;2.97;;;;;;;25.86;35.23;99165.75;6979420;28;20202;-79
2022/06/13 08:12:38;;;;;;;5.97;3.07;;;;;;;26.10;35.45;99169.31;6980846;28;20245;-78
2022/06/13 08:16:00;;;;;;;5.73;2.90;;;;;;;26.64;35.75;99144.78;6980805;28;20797;-80
2022/06/13 08:19:22;;;;;;;5.23;2.40;;;;;;;26.12;34.84;99151.34;6977669;28;20238;-80
2022/06/13 08:22:47;;;;;;;4.17;2.67;;;;;;;26.89;34.66;99141.63;6983798;28;20223;-79
2022/06/13 08:26:09;;;;;;;3.67;2.97;;;;;;;25.88;35.66;99158.81;6987082;28;20201;-79
2022/06/13 08:29:30;;;;;;;5.57;2.70;;;;;;;26.84;35.20;99180.44;6983581;28;20199;-79
2022/06/13 08:32:52;;;;;;;5.70;2.50;;;;;;;27.50;33.86;99170.72;6984199;28;20222;-79
2022/06/13 08:36:14;;;;;;;6.73;2.83;;;;;;;27.37;33.63;99177.03;6979249;28;20230;-79
2022/06/13 08:39:36;;;;;;;6.47;2.87;;;;;;;27.32;33.85;99179.88;6978244;28;20382;-79
2022/06/13 08:43:03;;;;;;;5.00;2.60;;;;;;;27.22;33.87;99166.25;6978230;28;20767;-80
2022/06/13 08:46:30;;;;;;;4.73;2.67;;;;;;;27.56;33.69;99171.44;6979083;28;20244;-79
2022/06/13 08:49:59;;;;;;;5.07;2.47;;;;;;;27.84;32.93;99178.66;6978060;28;20571;-79
2022/06/13 08:53:23;;;;;;;5.03;2.80;;;;;;;27.29;33.32;99177.75;6979430;28;20239;-80
2022/06/13 08:56:46;;;;;;;6.63;2.63;;;;;;;26.95;35.32;99181.94;6980510;28;20227;-80
2022/06/13 09:00:11;;;;;;;5.47;2.73;;;;;;;26.68;34.47;99198.41;6977683;28;20228;-80
2022/06/13 09:03:49;;;;;;;9.60;3.10;;;;;;;26.32;35.18;99184.22;6977322;28;20334;-79
2022/06/13 09:07:16;;;;;;;3.97;2.90;;;;;;;27.36;34.16;99178.16;6977764;28;20194;-79
2022/06/13 09:10:42;;;;;;;4.63;2.70;;;;;;;26.53;34.23;99199.41;6971471;28;20753;-79
2022/06/13 09:14:10;;;;;;;8.83;3.30;;;;;;;27.11;34.19;99189.66;6978629;28;20214;-79
2022/06/13 09:17:41;;;;;;;6.73;2.67;;;;;;;26.98;33.23;99184.06;6981468;28;20299;-80
2022/06/13 09:21:08;;;;;;;6.87;2.70;;;;;;;26.73;34.17;99184.50;6979182;28;20215;-79
2022/06/13 09:24:36;;;;;;;5.77;3.03;;;;;;;25.97;36.35;99181.13;6980128;28;20249;-79
2022/06/13 09:28:00;;;;;;;9.50;3.47;;;;;;;27.83;33.08;99199.19;6966855;28;20228;-78
2022/06/13 09:31:28;;;;;;;6.27;3.17;;;;;;;27.60;32.42;99187.13;6957614;28;20378;-78
2022/06/13 09:34:53;;;;;;;8.70;2.93;;;;;;;26.96;34.92;99200.97;6956926;28;20190;-79
2022/06/13 09:38:22;;;;;;;7.00;3.10;;;;;;;27.59;33.47;99193.78;6966592;28;20231;-77
2022/06/13 09:41:54;;;;;;;6.57;2.80;;;;;;;28.45;31.28;99190.13;6993812;28;20223;-79
2022/06/13 09:45:33;;;;;;;7.07;2.90;;;;;;;27.49;31.98;99148.84;6973519;28;20671;-78
2022/06/13 09:49:11;;;;;;;5.13;2.73;;;;;;;27.76;31.53;99196.78;6983640;28;20225;-78
2022/06/13 09:52:38;;;;;;;5.07;2.60;;;;;;;27.90;29.43;99192.09;6985861;28;20224;-79
2022/06/13 09:56:04;;;;;;;6.67;2.73;;;;;;;28.15;30.17;99207.41;6983128;28;20663;-78
2022/06/13 09:59:39;;;;;;;6.27;2.53;;;;;;;28.46;29.48;99184.25;6976631;28;20310;-77
2022/06/13 10:03:05;;;;;;;9.17;3.40;;;;;;;28.72;30.03;99198.38;6981180;28;20590;-78
2022/06/13 10:06:33;;;;;;;5.30;2.60;;;;;;;28.03;29.97;99199.59;6975530;28;20578;-79
2022/06/13 10:10:02;;;;;;;8.80;2.67;;;;;;;28.52;29.26;99199.66;6979357;28;20197;-78
2022/06/13 10:13:30;;;;;;;6.43;3.40;;;;;;;28.84;28.34;99177.25;6978525;28;20197;-77
2022/06/13 10:17:01;;;;;;;5.40;2.63;;;;;;;29.09;28.15;99195.28;6980173;28;20219;-78
2022/06/13 10:20:28;;;;;;;5.20;2.37;;;;;;;28.73;28.35;99188.91;6983739;28;20231;-79
2022/06/13 10:23:57;;;;;;;7.77;2.60;;;;;;;28.48;27.18;99168.13;6980620;28;20622;-78
2022/06/13 10:27:27;;;;;;;6.90;2.63;;;;;;;29.13;27.77;99208.19;6979905;28;20201;-78
2022/06/13 10:30:53;;;;;;;6.23;2.50;;;;;;;29.22;26.96;99188.81;6978227;28;20237;-78
2022/06/13 10:34:24;;;;;;;5.93;2.63;;;;;;;28.90;27.09;99198.19;6978947;28;20194;-78
2022/06/13 10:37:54;;;;;;;10.53;2.90;;;;;;;27.84;29.43;99203.59;6975641;28;20600;-77
2022/06/13 10:41:17;;;;;;;6.33;2.63;;;;;;;26.76;28.15;99162.56;6978494;28;20233;-78
2022/06/13 10:44:39;;;;;;;7.07;2.70;;;;;;;29.02;28.17;99206.00;6978911;28;20223;-79
2022/06/13 10:48:05;;;;;;;4.63;2.60;;;;;;;28.99;26.91;99190.78;6976012;28;20260;-79
2022/06/13 10:51:26;;;;;;;4.83;2.30;;;;;;;29.34;27.44;99178.78;6975313;28;20261;-79
2022/06/13 10:54:51;;;;;;;5.87;2.30;;;;;;;29.43;26.26;99199.06;6978936;28;20203;-79
2022/06/13 10:58:20;;;;;;;5.27;2.30;;;;;;;28.68;26.24;99178.75;6979922;28;20224;-79
2022/06/13 11:01:54;;;;;;;6.47;2.53;;;;;;;28.82;26.66;99190.63;6981071;28;20235;-78
2022/06/13 11:05:18;;;;;;;3.03;2.00;;;;;;;28.46;25.90;99192.59;6975780;28;20219;-79
2022/06/13 11:08:40;;;;;;;4.37;2.60;;;;;;;29.16;26.56;99198.41;6975215;28;20637;-78
2022/06/13 11:12:04;;;;;;;5.87;2.17;;;;;;;29.80;25.74;99197.84;6975841;28;20276;-79
2022/06/13 11:23:02;;;;;;;5.43;2.20;;;;;;;29.76;24.61;99194.88;6938224;28;20247;-79
2022/06/13 11:30:34;;;;;;;4.80;1.90;;;;;;;30.01;24.97;99201.69;6975142;28;20222;-80
2022/06/13 11:33:56;;;;;;;4.00;2.13;;;;;;;29.92;24.44;99198.88;6975244;28;20225;-79
2022/06/13 11:37:21;;;;;;;3.80;1.93;;;;;;;29.85;25.08;99195.72;6976025;28;20292;-80
2022/06/13 11:40:43;;;;;;;3.77;2.10;;;;;;;30.41;23.94;99198.56;6976416;28;20238;-79
2022/06/13 11:44:06;;;;;;;2.97;2.10;;;;;;;30.52;24.58;99190.69;7002862;28;20216;-79
2022/06/13 11:47:39;;;;;;;2.00;1.80;;;;;;;29.73;23.21;99184.38;6982475;28;20242;-79
2022/06/13 11:51:04;;;;;;;4.70;2.27;;;;;;;29.36;24.93;99129.25;6980680;28;20327;-79
2022/06/13 11:54:30;;;;;;;4.53;2.27;;;;;;;30.65;24.58;99201.72;6981266;28;20257;-79
2022/06/13 11:57:54;;;;;;;3.23;2.00;;;;;;;30.80;23.49;99190.13;6978959;28;20244;-79
2022/06/13 12:01:23;;;;;;;3.60;1.90;;;;;;;28.17;24.90;99188.47;6985027;28;20276;-79
2022/06/13 12:04:47;;;;;;;3.77;2.10;;;;;;;28.91;25.04;99160.16;6980781;28;20193;-80
2022/06/13 12:08:20;;;;;;;3.27;1.87;;;;;;;30.11;24.02;99190.28;6982621;28;20209;-79
2022/06/13 12:11:48;;;;;;;3.77;2.30;;;;;;;29.38;24.59;99190.06;6968494;28;20235;-79
2022/06/13 12:15:11;;;;;;;4.00;1.70;;;;;;;30.24;23.81;99179.03;6951827;28;20201;-79
2022/06/13 12:18:40;;;;;;;4.20;2.03;;;;;;;29.46;25.00;99176.22;6952963;28;20241;-79
2022/06/13 12:22:08;;;;;;;3.10;2.07;;;;;;;28.92;24.51;99172.91;6959605;28;20699;-79
2022/06/13 12:25:33;;;;;;;3.30;1.70;;;;;;;28.62;24.71;99173.63;6962488;28;20627;-79
2022/06/13 12:29:03;;;;;;;2.97;2.30;;;;;;;28.46;25.79;99186.22;6958716;28;20216;-78
2022/06/13 12:32:27;;;;;;;2.90;1.83;;;;;;;28.01;25.86;99167.78;6966137;28;20279;-79
2022/06/13 12:36:24;;;;;;;4.13;2.00;;;;;;;27.81;25.73;99177.31;6972126;28;20219;-79
2022/06/13 12:40:03;;;;;;;5.67;2.27;;;;;;;29.01;26.28;99180.19;6976096;28;20278;-80
2022/06/13 12:44:10;;;;;;;3.80;2.17;;;;;;;28.68;24.89;99187.09;6972085;28;20244;-79
2022/06/13 12:48:00;;;;;;;3.73;1.90;;;;;;;28.43;25.90;99186.84;6899402;28;20219;-79
2022/06/13 12:51:26;;;;;;;3.73;2.27;;;;;;;29.33;25.03;99187.41;6980833;28;20222;-80
2022/06/13 12:54:51;;;;;;;4.00;1.90;;;;;;;29.20;24.95;99177.22;6984580;28;20191;-80
2022/06/13 12:58:29;;;;;;;2.73;2.00;;;;;;;29.89;23.60;99191.16;6983904;28;20220;-79
2022/06/13 13:02:00;;;;;;;7.90;2.00;;;;;;;29.33;23.31;99168.81;6983870;28;20228;-79
2022/06/13 13:05:27;;;;;;;4.37;2.20;;;;;;;28.17;25.86;99180.16;6982163;28;20197;-79
2022/06/13 13:08:57;;;;;;;3.60;1.90;;;;;;;28.25;25.59;99194.13;6995327;28;20197;-79
2022/06/13 13:12:45;;;;;;;3.73;1.70;;;;;;;27.55;25.31;99191.94;6995448;28;20231;-80
2022/06/13 13:16:14;;;;;;;2.57;1.63;;;;;;;27.35;26.15;99187.59;6953728;28;20190;-80
2022/06/13 13:19:45;;;;;;;2.37;1.70;;;;;;;27.27;25.73;99182.78;6979726;28;20243;-80
2022/06/13 13:23:13;;;;;;;3.70;1.90;;;;;;;28.92;24.92;99184.00;6980988;28;20197;-80
2022/06/13 13:26:43;;;;;;;3.33;1.93;;;;;;;28.92;25.13;99182.06;6980610;28;20203;-80
2022/06/13 13:30:15;;;;;;;3.70;1.80;;;;;;;28.91;25.12;99183.16;6978464;28;20581;-80
2022/06/13 13:33:59;;;;;;;4.57;2.00;;;;;;;27.99;25.50;99181.09;6980112;28;20254;-79
2022/06/13 13:37:26;;;;;;;4.00;2.40;;;;;;;28.02;26.20;99177.72;6978494;28;20220;-80
2022/06/13 13:40:51;;;;;;;6.23;2.40;;;;;;;27.60;26.10;99180.78;6968355;28;20288;-79
2022/06/13 13:44:16;;;;;;;4.30;2.20;;;;;;;27.87;25.91;99172.50;6997639;28;20211;-79
2022/06/13 13:47:38;;;;;;;3.53;1.73;;;;;;;27.56;25.50;99183.34;6983525;28;20212;-80
2022/06/13 13:51:06;;;;;;;3.60;2.17;;;;;;;27.79;25.54;99192.63;6963200;28;20254;-79
2022/06/13 13:54:31;;;;;;;3.03;1.63;;;;;;;27.98;24.58;99182.25;6954578;28;20193;-79
2022/06/13 13:57:56;;;;;;;1.80;1.70;;;;;;;28.64;25.39;99171.34;6955412;28;20207;-80
2022/06/13 14:01:33;;;;;;;3.67;2.17;;;;;;;28.96;25.17;99169.19;6953509;28;20249;-79
2022/06/13 14:05:07;;;;;;;4.63;2.20;;;;;;;29.20;24.70;99169.69;6948145;28;20822;-79
2022/06/13 14:08:31;;;;;;;5.20;1.90;;;;;;;29.38;22.66;99168.66;6949237;28;20210;-79
2022/06/13 14:12:00;;;;;;;4.23;2.20;;;;;;;28.20;24.50;99179.56;6950139;28;20231;-79
2022/06/13 14:15:31;;;;;;;3.37;2.00;;;;;;;29.46;23.67;99158.72;6952880;28;20206;-79
2022/06/13 14:19:03;;;;;;;5.03;2.00;;;;;;;28.90;24.03;99158.50;6965777;28;20733;-79
2022/06/13 14:22:25;;;;;;;3.20;1.80;;;;;;;29.15;23.69;99144.00;6976716;28;20378;-79
2022/06/13 14:25:50;;;;;;;3.10;1.87;;;;;;;28.68;24.11;99089.94;6967851;28;21039;-78
2022/06/13 14:29:14;;;;;;;2.13;1.50;;;;;;;29.67;23.83;99155.09;6976049;28;20692;-78
2022/06/13 14:32:38;;;;;;;2.17;1.63;;;;;;;29.41;23.48;99162.47;6975754;28;20221;-79
2022/06/13 14:36:00;;;;;;;3.20;2.00;;;;;;;29.28;23.92;99170.88;6965959;28;20216;-79
2022/06/13 14:39:27;;;;;;;3.83;2.03;;;;;;;29.49;23.33;99163.66;6975489;28;20262;-79
2022/06/13 14:42:55;;;;;;;2.33;1.67;;;;;;;29.15;23.00;99141.22;6975807;28;20222;-79
2022/06/13 14:46:24;;;;;;;3.70;2.20;;;;;;;28.99;23.32;99162.19;6976767;28;20195;-79
2022/06/13 14:49:49;;;;;;;4.57;1.87;;;;;;;28.81;24.07;99169.56;6951636;28;20210;-79
2022/06/13 14:53:48;;;;;;;4.57;1.90;;;;;;;28.87;23.91;99153.56;6975298;28;20211;-80
2022/06/13 14:57:45;;;;;;;4.40;2.13;;;;;;;28.44;24.02;99155.19;6975513;28;20315;-79
2022/06/13 15:01:21;;;;;;;3.70;2.07;;;;;;;27.39;25.52;99160.13;6962677;28;20238;-79
2022/06/13 15:04:42;;;;;;;4.87;1.90;;;;;;;28.12;24.59;99164.47;6960586;28;20296;-78
2022/06/13 15:08:08;;;;;;;3.80;1.90;;;;;;;27.70;25.06;99144.53;6963094;28;20261;-79
2022/06/13 15:11:31;;;;;;;3.43;1.87;;;;;;;29.06;24.01;99120.91;6957889;28;20252;-79
2022/06/13 15:14:54;;;;;;;2.63;1.90;;;;;;;28.96;23.47;99152.53;6965430;28;20670;-79
2022/06/13 15:18:21;;;;;;;2.27;1.80;;;;;;;28.74;23.70;99151.69;6978737;28;20819;-79
2022/06/13 15:21:46;;;;;;;1.73;1.63;;;;;;;28.93;24.04;99149.53;6970859;28;20265;-79
2022/06/13 15:25:08;;;;;;;4.47;1.93;;;;;;;29.27;23.46;99147.84;6970367;28;20360;-79
2022/06/13 15:28:40;;;;;;;2.17;1.83;;;;;;;29.16;23.51;99153.97;6953055;28;20665;-79
2022/06/13 15:32:20;;;;;;;6.10;1.90;;;;;;;28.20;24.73;99155.41;6965599;28;20243;-79
2022/06/13 15:35:55;;;;;;;2.73;1.80;;;;;;;27.90;24.02;99117.25;6976062;28;20676;-79
2022/06/13 15:39:16;;;;;;;2.27;2.03;;;;;;;28.82;23.81;99153.69;6977629;28;20220;-79
2022/06/13 15:42:40;;;;;;;3.33;1.83;;;;;;;28.17;24.15;99131.06;6982472;28;20236;-79
2022/06/13 15:46:02;;;;;;;3.93;2.20;;;;;;;28.62;23.59;99145.88;6998888;28;20206;-79
2022/06/13 15:49:26;;;;;;;4.80;2.07;;;;;;;28.86;23.42;99141.69;6977823;28;20213;-79
2022/06/13 15:52:50;;;;;;;3.63;1.97;;;;;;;29.14;23.77;99140.41;6968482;28;20300;-79
2022/06/13 15:56:42;;;;;;;4.20;2.00;;;;;;;28.70;24.43;99153.44;6965909;28;20210;-79
2022/06/13 16:00:06;;;;;;;2.97;2.07;;;;;;;28.26;24.44;99123.66;6922152;28;20319;-79
2022/06/13 16:03:28;;;;;;;2.80;1.93;;;;;;;27.90;24.52;99116.44;6978989;28;20231;-79
2022/06/13 16:06:51;;;;;;;4.27;2.40;;;;;;;28.69;24.54;99144.31;6978044;28;20638;-79
2022/06/13 16:10:17;;;;;;;2.43;2.07;;;;;;;27.89;24.50;99126.69;6979354;28;20238;-80
2022/06/13 16:13:42;;;;;;;3.40;1.77;;;;;;;28.63;24.20;99139.19;6979209;28;20285;-79
2022/06/13 16:17:06;;;;;;;3.67;2.27;;;;;;;28.25;24.33;99146.16;6979319;28;20204;-79
2022/06/13 16:20:30;;;;;;;3.97;2.13;;;;;;;28.06;24.51;99132.44;6979030;28;20354;-79
2022/06/13 16:23:55;;;;;;;4.70;2.20;;;;;;;27.85;24.57;99136.75;6979212;28;20294;-78
2022/06/13 16:27:20;;;;;;;4.67;2.10;;;;;;;27.10;25.04;99120.75;6983307;28;20292;-79
2022/06/13 16:30:44;;;;;;;6.83;5.17;;;;;;;28.20;25.14;99124.09;6977390;28;20590;-77
2022/06/13 16:34:06;;;;;;;3.07;2.00;;;;;;;27.94;23.72;99134.91;6978600;28;20219;-79
2022/06/13 16:37:52;;;;;;;5.17;2.10;;;;;;;28.21;24.01;99123.78;6977458;28;20218;-79
2022/06/13 16:41:25;;;;;;;2.33;1.83;;;;;;;27.86;24.58;99123.72;6978789;28;20273;-79